Aeroporto :
LOGIN :

Iscrizione | Disclaimer

   EN    FR    IT 

 










Sommario :    VFR   VFR Marginale   IFR   IFR Intensivo   IFR Molto Intensivo
Visibilità : 
Base nubi : 
>= 8 km
>= 3000ft
5 / 8 km
1000 / 3000 ft
1500m / 5 km
500 / 1000 ft
800 / 1500m
200 / 500 ft
< 800m
< 200 ft
Simboli :   Temporali  Nebbia  Neve Forte  Precipitazioni Forti  Vento > 20 kt
SIGMETs :   Varie  Temporali  Ghiacco  Turbolenza  Onda orograficha  Ceneri Vulcaniche






- Altitudine del aeroporto : 100 ft


EBDT - Schaffen

ULTIMO METAR :
  • 110255Z AUTO 20012KT 9999 BKN011/// BKN014/// 06/04 Q1011 GRN

METARs OBSOLETI :
  • 110225Z AUTO 20015KT 9999 BKN012/// OVC015/// 06/04 Q1011 GRN
  • 110155Z AUTO 20013KT 9999 SCT014/// OVC018/// 07/04 Q1011 GRN
  • 110125Z AUTO 20014KT 9999 BKN016/// BKN020/// 07/04 Q1011 WHT
  • 110055Z AUTO 20014KT 9000 FEW018/// BKN021/// OVC030/// 06/03 Q1011 WHT
  • 110025Z AUTO 19017KT 9999 BKN022/// OVC026/// 07/03 Q1011 WHT

Previsioni scadute.



MetMap, La meteo Aeronautica in un colpo d'occhio ! - Copyright ORBIFLY Dicembre 2007 - Disclaimer

ORBIFLY MET'MAP TEAM :

Programmazione e sviluppo : Alexandra Zaïnal
Concezione : Baudouin d'Aumeries
Aiuto per la programmazione : Marc-Olivier Méhu
Supporto tecnico e logistico : Manuel Goepfert
Aiuto per la traduzione : Arnaldo La Scala

Contatto : metmap@orbifly.com




FONTI E CREDITI :

   NOAA